Time;durP1;ratioP1;P1;durP2;ratioP2;P2;SDS_P1;SDS_P2;PMS_P1;PMS_P2;Temp;Humidity;BMP_temperature;BMP_pressure;BME280_temperature;BME280_humidity;BME280_pressure;Samples;Min_cycle;Max_cycle;Signal;HPM_P1;HPM_P2
2020/12/25 00:01:58;;;;;;;10.83;9.80;;;;;;;3.22;88.37;100420.09;5050028;28;20289;-75
2020/12/25 00:04:23;;;;;;;10.33;9.33;;;;;;;3.26;88.60;100418.47;5050589;28;20261;-78
2020/12/25 00:06:48;;;;;;;10.87;9.77;;;;;;;3.14;88.17;100425.16;5050414;28;20207;-75
2020/12/25 00:09:14;;;;;;;10.27;9.10;;;;;;;3.08;88.83;100420.84;5050303;28;20643;-75
2020/12/25 00:11:39;;;;;;;10.17;9.27;;;;;;;3.08;89.12;100427.03;5050190;28;20286;-75
2020/12/25 00:14:05;;;;;;;9.67;8.90;;;;;;;3.16;88.61;100429.22;5050188;28;20175;-75
2020/12/25 00:16:30;;;;;;;13.10;9.97;;;;;;;3.21;88.73;100428.47;5050173;28;20175;-74
2020/12/25 00:18:56;;;;;;;9.57;8.67;;;;;;;3.07;88.16;100435.41;5050208;28;20239;-75
2020/12/25 00:21:22;;;;;;;9.00;8.20;;;;;;;3.17;88.01;100436.25;5050220;28;20207;-75
2020/12/25 00:23:48;;;;;;;8.60;7.57;;;;;;;3.07;87.83;100435.41;5049986;28;20711;-75
2020/12/25 00:26:22;;;;;;;9.13;8.23;;;;;;;3.19;88.02;100446.81;5050065;28;20426;-75
2020/12/25 00:28:47;;;;;;;8.83;7.93;;;;;;;3.12;87.83;100444.31;5050032;28;20585;-75
2020/12/25 00:31:21;;;;;;;7.83;7.03;;;;;;;3.08;87.44;100454.03;5049908;28;20448;-75
2020/12/25 00:33:46;;;;;;;7.50;6.80;;;;;;;3.09;86.81;100452.97;5050019;28;20222;-75
2020/12/25 00:36:11;;;;;;;7.93;7.33;;;;;;;3.04;87.17;100452.09;5049850;28;20425;-78
2020/12/25 00:38:37;;;;;;;7.83;7.13;;;;;;;3.06;87.36;100466.97;5050374;28;20626;-74
2020/12/25 00:41:02;;;;;;;7.90;7.20;;;;;;;3.07;86.69;100471.31;5053601;28;20294;-75
2020/12/25 00:43:27;;;;;;;8.40;6.07;;;;;;;2.88;86.89;100470.88;5053510;28;20191;-75
2020/12/25 00:45:53;;;;;;;7.00;6.30;;;;;;;2.92;86.46;100477.41;5053932;28;20262;-75
2020/12/25 00:48:18;;;;;;;8.67;6.93;;;;;;;2.92;86.66;100476.59;5053323;28;20191;-75
2020/12/25 00:50:43;;;;;;;12.07;6.90;;;;;;;2.82;86.60;100484.63;5053469;28;20570;-78
2020/12/25 00:53:08;;;;;;;6.83;6.33;;;;;;;2.81;86.59;100485.69;5053350;28;20183;-78
2020/12/25 00:55:34;;;;;;;7.30;6.53;;;;;;;2.74;86.55;100496.69;5053411;28;20242;-75
2020/12/25 00:57:59;;;;;;;7.30;6.60;;;;;;;2.79;86.67;100490.53;5053200;28;20182;-78
2020/12/25 01:00:24;;;;;;;6.93;6.33;;;;;;;2.73;86.33;100505.03;5052926;28;20171;-78
2020/12/25 01:02:50;;;;;;;6.07;5.47;;;;;;;2.79;86.37;100501.31;5053292;28;20187;-78
2020/12/25 01:05:15;;;;;;;6.13;5.67;;;;;;;2.81;86.09;100502.69;5053477;28;20172;-79
2020/12/25 01:07:40;;;;;;;7.03;5.70;;;;;;;2.76;86.21;100508.06;5053221;28;20642;-79
2020/12/25 01:10:06;;;;;;;6.30;5.67;;;;;;;2.69;86.20;100513.66;5053149;28;20179;-78
2020/12/25 01:12:31;;;;;;;7.83;6.17;;;;;;;2.65;86.09;100517.13;5053081;28;20202;-78
2020/12/25 01:14:56;;;;;;;7.40;5.80;;;;;;;2.76;85.86;100520.72;5053113;28;20175;-77
2020/12/25 01:17:22;;;;;;;5.83;5.17;;;;;;;2.63;85.67;100522.78;5053017;28;20174;-77
2020/12/25 01:19:47;;;;;;;7.40;5.20;;;;;;;2.66;86.04;100532.25;5053297;28;20236;-77
2020/12/25 01:22:12;;;;;;;6.80;4.80;;;;;;;2.65;84.89;100536.00;5052732;28;20211;-77
2020/12/25 01:24:37;;;;;;;6.90;4.43;;;;;;;2.53;84.78;100535.34;5052922;28;20167;-76
2020/12/25 01:27:03;;;;;;;5.33;4.30;;;;;;;2.45;84.81;100522.31;5052700;28;20739;-77
2020/12/25 01:29:28;;;;;;;7.67;4.53;;;;;;;2.48;85.37;100543.41;5052104;28;20191;-77
2020/12/25 01:31:53;;;;;;;5.87;5.27;;;;;;;2.41;85.72;100540.91;5052633;28;20171;-77
2020/12/25 01:34:19;;;;;;;5.80;5.20;;;;;;;2.35;86.26;100544.63;5052646;28;20637;-77
2020/12/25 01:36:45;;;;;;;6.50;5.50;;;;;;;2.39;86.43;100549.25;5051037;28;20175;-77
2020/12/25 01:39:10;;;;;;;5.00;4.47;;;;;;;2.34;85.96;100548.41;5052631;28;20465;-77
2020/12/25 01:41:35;;;;;;;5.93;5.40;;;;;;;2.26;86.72;100551.53;5052379;28;20294;-77
2020/12/25 01:44:00;;;;;;;6.07;5.53;;;;;;;2.25;86.57;100556.09;5052494;28;20174;-76
2020/12/25 01:46:26;;;;;;;5.70;5.10;;;;;;;2.26;86.14;100562.31;5052389;28;20254;-77
2020/12/25 01:48:52;;;;;;;5.73;4.80;;;;;;;2.27;85.74;100556.66;5052405;28;20230;-77
2020/12/25 01:51:19;;;;;;;5.73;5.10;;;;;;;2.25;85.00;100561.50;5051641;28;20266;-77
2020/12/25 01:53:45;;;;;;;8.57;4.37;;;;;;;2.32;85.83;100561.31;5052278;28;20253;-78
2020/12/25 01:56:12;;;;;;;5.03;4.73;;;;;;;2.22;84.99;100567.41;5052016;28;20885;-76
2020/12/25 01:58:39;;;;;;;6.33;4.50;;;;;;;2.28;84.86;100570.97;5052173;28;20179;-77
2020/12/25 02:01:04;;;;;;;4.00;3.50;;;;;;;2.33;82.46;100569.16;5052102;28;20484;-77
2020/12/25 02:03:30;;;;;;;4.60;4.27;;;;;;;2.23;82.24;100579.81;5052190;28;20422;-78
2020/12/25 02:05:55;;;;;;;6.10;5.27;;;;;;;2.15;81.85;100588.34;5052107;28;20199;-77
2020/12/25 02:08:20;;;;;;;5.33;4.83;;;;;;;2.13;82.63;100595.84;5051949;28;20178;-77
2020/12/25 02:10:46;;;;;;;5.27;4.77;;;;;;;2.27;82.72;100602.50;5051963;28;20175;-77
2020/12/25 02:13:12;;;;;;;4.60;4.07;;;;;;;2.45;82.35;100601.34;5051838;28;20534;-77
2020/12/25 02:15:37;;;;;;;6.03;4.57;;;;;;;2.45;82.20;100611.31;5052251;28;20270;-78
2020/12/25 02:18:05;;;;;;;4.93;4.23;;;;;;;2.19;81.98;100594.88;5051745;28;20262;-77
2020/12/25 02:20:31;;;;;;;4.90;4.50;;;;;;;2.26;82.08;100605.44;5051769;28;20804;-77
2020/12/25 02:22:57;;;;;;;6.80;4.03;;;;;;;2.11;82.35;100606.09;5051813;28;20476;-77
2020/12/25 02:25:22;;;;;;;6.67;4.77;;;;;;;2.15;82.70;100596.41;5051785;28;20524;-78
2020/12/25 02:27:47;;;;;;;4.83;3.87;;;;;;;2.13;82.65;100598.56;5051425;28;20175;-77
2020/12/25 02:30:14;;;;;;;7.10;4.03;;;;;;;2.15;82.85;100595.59;5051541;28;20228;-77
2020/12/25 02:32:40;;;;;;;4.60;4.20;;;;;;;2.00;82.51;100593.53;5051640;28;20187;-77
2020/12/25 02:35:05;;;;;;;5.33;3.93;;;;;;;2.05;83.01;100597.13;5051509;28;20959;-77
2020/12/25 02:37:30;;;;;;;5.07;3.67;;;;;;;2.08;82.20;100602.00;5051307;28;20653;-77
2020/12/25 02:39:56;;;;;;;4.23;3.90;;;;;;;2.06;82.04;100614.13;5051495;28;20227;-77
2020/12/25 02:42:21;;;;;;;5.33;3.97;;;;;;;2.05;81.98;100612.50;5051179;28;20206;-77
2020/12/25 02:44:46;;;;;;;3.93;3.53;;;;;;;2.17;82.19;100609.63;5051412;28;20171;-77
2020/12/25 02:47:12;;;;;;;7.30;4.13;;;;;;;2.03;82.26;100623.53;5051121;28;20176;-77
2020/12/25 02:49:38;;;;;;;4.93;4.50;;;;;;;2.06;82.25;100616.81;5051205;28;20211;-78
2020/12/25 02:52:04;;;;;;;4.23;3.83;;;;;;;1.99;82.26;100624.25;5051213;28;20269;-77
2020/12/25 02:54:29;;;;;;;4.87;4.43;;;;;;;2.03;82.43;100626.22;5051151;28;20497;-77
2020/12/25 02:56:54;;;;;;;5.43;4.33;;;;;;;2.07;82.72;100629.22;5050962;28;20175;-77
2020/12/25 02:59:20;;;;;;;5.00;3.83;;;;;;;2.17;82.60;100620.41;5051112;28;20171;-77
2020/12/25 03:01:49;;;;;;;6.17;4.60;;;;;;;2.12;82.89;100631.97;5051008;28;20205;-78
2020/12/25 03:04:15;;;;;;;4.50;4.20;;;;;;;2.08;83.47;100626.25;5050944;28;20178;-78
2020/12/25 03:06:40;;;;;;;4.80;4.30;;;;;;;2.17;83.21;100621.25;5051316;28;20414;-77
2020/12/25 03:09:05;;;;;;;4.40;4.10;;;;;;;2.33;83.29;100627.66;5050910;28;20178;-76
2020/12/25 03:11:31;;;;;;;4.43;4.13;;;;;;;2.15;81.77;100634.16;5051374;28;20554;-77
2020/12/25 03:13:56;;;;;;;4.57;4.20;;;;;;;2.18;81.85;100635.56;5050764;28;20186;-77
2020/12/25 03:16:21;;;;;;;5.13;4.63;;;;;;;2.12;82.10;100639.22;5050759;28;20541;-78
2020/12/25 03:18:47;;;;;;;5.00;4.60;;;;;;;2.09;82.65;100635.97;5050788;28;20254;-77
2020/12/25 03:21:12;;;;;;;6.67;5.00;;;;;;;2.19;82.07;100642.56;5050574;28;20207;-77
2020/12/25 03:23:37;;;;;;;5.27;4.80;;;;;;;2.24;82.15;100646.13;5050627;28;20178;-78
2020/12/25 03:26:03;;;;;;;5.13;4.67;;;;;;;2.09;82.25;100635.97;5050675;28;20218;-78
2020/12/25 03:28:28;;;;;;;6.73;5.47;;;;;;;2.17;82.84;100644.69;5050630;28;20179;-77
2020/12/25 03:30:53;;;;;;;6.33;5.73;;;;;;;2.30;82.88;100642.41;5050587;28;20194;-78
2020/12/25 03:33:19;;;;;;;6.03;5.47;;;;;;;2.27;82.36;100642.94;5050720;28;20214;-78
2020/12/25 03:35:44;;;;;;;6.53;6.07;;;;;;;2.22;82.41;100648.25;5050615;28;20179;-78
2020/12/25 03:38:09;;;;;;;6.60;6.10;;;;;;;2.15;82.22;100650.31;5050415;28;20233;-77
2020/12/25 03:40:34;;;;;;;6.00;5.37;;;;;;;2.23;82.61;100649.06;5050047;28;20683;-77
2020/12/25 03:43:01;;;;;;;6.20;5.80;;;;;;;2.14;82.30;100653.25;5049909;28;20222;-77
2020/12/25 03:45:27;;;;;;;6.97;5.10;;;;;;;2.19;82.06;100654.16;5050097;28;20231;-77
2020/12/25 03:47:52;;;;;;;5.70;5.23;;;;;;;2.17;82.25;100659.00;5050346;28;20437;-78
2020/12/25 03:50:17;;;;;;;8.50;5.37;;;;;;;2.18;83.21;100652.53;5050297;28;20950;-78
2020/12/25 03:52:43;;;;;;;5.93;5.43;;;;;;;2.19;83.07;100658.75;5050333;28;20654;-77
2020/12/25 03:55:08;;;;;;;5.73;4.50;;;;;;;2.19;82.48;100659.56;5050153;28;20175;-77
2020/12/25 03:57:33;;;;;;;4.53;4.23;;;;;;;2.12;82.04;100669.69;5050106;28;20240;-78
2020/12/25 03:59:59;;;;;;;4.90;4.50;;;;;;;2.17;82.82;100667.06;5050436;28;20521;-77
2020/12/25 04:02:24;;;;;;;7.43;4.93;;;;;;;2.20;83.22;100666.56;5050149;28;20203;-78
2020/12/25 04:04:49;;;;;;;5.57;4.63;;;;;;;2.17;83.20;100675.16;5050537;28;20269;-78
2020/12/25 04:07:15;;;;;;;5.00;4.60;;;;;;;2.28;83.15;100676.91;5050273;28;20175;-77
2020/12/25 04:09:40;;;;;;;5.20;3.33;;;;;;;2.22;82.75;100675.22;5050318;28;20176;-77
2020/12/25 04:12:05;;;;;;;4.40;4.00;;;;;;;2.17;83.39;100669.78;5050186;28;20190;-77
2020/12/25 04:14:33;;;;;;;3.77;3.40;;;;;;;2.15;83.96;100674.56;5052236;28;20258;-77
2020/12/25 04:16:58;;;;;;;8.73;3.63;;;;;;;2.09;84.27;100680.97;5054259;28;20233;-78
2020/12/25 04:19:23;;;;;;;4.00;3.40;;;;;;;2.03;85.19;100690.06;5053995;28;20810;-77
2020/12/25 04:21:49;;;;;;;4.23;2.43;;;;;;;1.97;85.38;100696.44;5054116;28;20768;-77
2020/12/25 04:24:14;;;;;;;4.87;3.60;;;;;;;1.89;85.60;100707.66;5054061;28;20249;-77
2020/12/25 04:26:44;;;;;;;3.90;2.93;;;;;;;1.82;86.14;100705.09;5053752;28;20266;-77
2020/12/25 04:29:10;;;;;;;4.33;4.00;;;;;;;1.79;86.72;100711.00;5053991;28;20167;-77
2020/12/25 04:31:35;;;;;;;3.53;3.23;;;;;;;1.81;86.65;100718.81;5053766;28;20417;-78
2020/12/25 04:34:00;;;;;;;2.43;1.63;;;;;;;1.75;86.48;100716.06;5053822;28;20175;-77
2020/12/25 04:36:26;;;;;;;4.03;3.63;;;;;;;1.74;86.75;100719.00;5053785;28;20718;-76
2020/12/25 04:38:51;;;;;;;5.63;3.77;;;;;;;1.75;86.98;100726.03;5053686;28;20249;-77
2020/12/25 04:41:17;;;;;;;3.97;3.20;;;;;;;1.78;86.91;100722.84;5053536;28;20286;-77
2020/12/25 04:43:43;;;;;;;3.90;3.60;;;;;;;1.79;87.02;100725.28;5053631;28;20175;-77
2020/12/25 04:46:09;;;;;;;5.03;3.10;;;;;;;1.82;86.89;100725.84;5053442;28;20970;-77
2020/12/25 04:48:39;;;;;;;4.83;3.37;;;;;;;1.77;86.38;100723.91;5053361;28;20426;-77
2020/12/25 04:51:05;;;;;;;8.47;4.03;;;;;;;1.76;86.62;100730.34;5053682;28;20639;-77
2020/12/25 04:53:31;;;;;;;3.50;3.20;;;;;;;1.79;86.76;100730.66;5053292;28;20461;-76
2020/12/25 04:55:57;;;;;;;3.50;3.30;;;;;;;1.80;86.54;100731.47;5053348;28;20639;-77
2020/12/25 04:58:22;;;;;;;3.87;3.20;;;;;;;1.78;86.57;100747.88;5053269;28;20421;-77
2020/12/25 05:01:02;;;;;;;3.83;3.00;;;;;;;1.75;86.75;100748.38;5053220;28;20465;-77
2020/12/25 05:03:32;;;;;;;4.80;3.70;;;;;;;1.72;87.25;100751.53;5053695;28;20164;-77
2020/12/25 05:06:02;;;;;;;4.17;3.50;;;;;;;1.68;87.08;100742.34;5053249;28;20442;-77
2020/12/25 05:08:27;;;;;;;3.90;3.50;;;;;;;1.64;87.49;100749.28;5053062;28;20417;-77
2020/12/25 05:10:53;;;;;;;3.03;2.77;;;;;;;1.65;87.33;100750.09;5053055;28;20428;-77
2020/12/25 05:13:18;;;;;;;4.80;3.47;;;;;;;1.65;87.34;100761.69;5052966;28;20176;-77
2020/12/25 05:15:47;;;;;;;4.23;3.93;;;;;;;1.67;87.51;100762.25;5053238;28;20188;-78
2020/12/25 05:18:16;;;;;;;8.63;3.60;;;;;;;1.71;87.62;100755.31;5053046;28;20183;-77
2020/12/25 05:20:41;;;;;;;4.53;3.73;;;;;;;1.73;87.41;100758.56;5052757;28;20426;-77
2020/12/25 05:23:10;;;;;;;6.30;3.40;;;;;;;1.69;87.69;100754.72;5051296;28;20505;-78
2020/12/25 05:25:38;;;;;;;6.20;4.10;;;;;;;1.70;87.60;100758.25;5051652;28;20313;-78
2020/12/25 05:28:13;;;;;;;4.47;4.07;;;;;;;1.72;88.04;100762.31;5056440;28;20437;-78
2020/12/25 05:30:44;;;;;;;3.63;3.33;;;;;;;1.70;87.65;100756.38;5061763;28;20418;-78
2020/12/25 05:33:10;;;;;;;4.47;2.43;;;;;;;1.67;87.47;100769.50;5053928;28;20492;-77
2020/12/25 05:35:36;;;;;;;3.70;3.40;;;;;;;1.65;87.93;100759.00;5053519;28;20464;-77
2020/12/25 05:38:09;;;;;;;5.50;3.47;;;;;;;1.68;88.04;100771.97;5052771;28;20171;-78
2020/12/25 05:40:40;;;;;;;3.43;3.13;;;;;;;1.68;88.11;100776.53;5052644;28;20418;-76
2020/12/25 05:43:06;;;;;;;3.70;3.40;;;;;;;1.69;88.39;100778.97;5052753;28;20410;-78
2020/12/25 05:45:32;;;;;;;6.07;3.50;;;;;;;1.65;88.31;100777.84;5052550;28;20421;-77
2020/12/25 05:48:05;;;;;;;4.70;3.37;;;;;;;1.62;88.53;100781.03;5052414;28;20183;-77
2020/12/25 05:50:31;;;;;;;2.60;2.40;;;;;;;1.60;87.94;100772.38;5052354;28;20776;-77
2020/12/25 05:52:56;;;;;;;4.60;3.20;;;;;;;1.57;88.17;100778.22;5052410;28;20493;-77
2020/12/25 05:55:23;;;;;;;5.33;3.30;;;;;;;1.58;88.67;100776.34;5052378;28;20171;-77
2020/12/25 05:57:50;;;;;;;2.63;2.43;;;;;;;1.59;88.25;100783.38;5052307;28;20179;-77
2020/12/25 06:00:26;;;;;;;5.87;3.50;;;;;;;1.58;88.28;100789.81;5052259;28;20409;-77
2020/12/25 06:02:56;;;;;;;3.10;2.90;;;;;;;1.58;88.30;100800.59;5052343;28;20439;-77
2020/12/25 06:05:23;;;;;;;3.33;3.03;;;;;;;1.55;88.10;100796.50;5052356;28;20519;-76
2020/12/25 06:07:55;;;;;;;3.73;3.20;;;;;;;1.59;88.47;100803.06;5052015;28;20771;-77
2020/12/25 06:10:23;;;;;;;5.07;3.10;;;;;;;1.54;87.85;100804.81;5052063;28;20445;-76
2020/12/25 06:12:50;;;;;;;3.23;3.03;;;;;;;1.55;87.73;100809.16;5051829;28;20433;-78
2020/12/25 06:15:29;;;;;;;6.20;3.23;;;;;;;1.55;88.16;100811.84;5052014;28;20420;-78
2020/12/25 06:18:16;;;;;;;3.60;3.30;;;;;;;1.53;87.68;100812.09;5051628;28;20425;-77
2020/12/25 06:20:51;;;;;;;3.33;1.80;;;;;;;1.49;87.88;100822.53;5051765;28;20440;-77
2020/12/25 06:23:16;;;;;;;3.03;2.83;;;;;;;1.47;87.88;100834.59;5051719;28;20456;-77
2020/12/25 06:25:42;;;;;;;4.83;3.67;;;;;;;1.50;88.06;100826.03;5051746;28;20454;-77
2020/12/25 06:28:07;;;;;;;2.87;2.70;;;;;;;1.49;87.86;100827.09;5051617;28;20182;-77
2020/12/25 06:30:34;;;;;;;6.00;3.30;;;;;;;1.44;87.87;100833.19;5051678;28;20179;-77
2020/12/25 06:33:00;;;;;;;3.13;2.80;;;;;;;1.44;87.83;100838.56;5051623;28;20654;-76
2020/12/25 06:35:30;;;;;;;4.30;3.03;;;;;;;1.38;87.62;100841.44;5052000;28;20759;-77
2020/12/25 06:37:55;;;;;;;3.97;2.63;;;;;;;1.36;87.66;100841.66;5050930;28;20414;-77
2020/12/25 06:40:24;;;;;;;3.30;2.77;;;;;;;1.37;87.53;100842.50;5051410;28;20421;-78
2020/12/25 06:42:53;;;;;;;3.30;2.77;;;;;;;1.31;87.41;100855.03;5051531;28;20687;-77
2020/12/25 06:45:31;;;;;;;3.20;2.43;;;;;;;1.32;87.15;100856.69;5051268;28;20429;-77
2020/12/25 06:48:18;;;;;;;3.27;2.80;;;;;;;1.29;86.78;100850.94;5051140;28;20564;-77
2020/12/25 06:50:58;;;;;;;2.90;2.10;;;;;;;1.28;86.71;100857.38;5051295;28;20418;-77
2020/12/25 06:53:43;;;;;;;2.83;2.50;;;;;;;1.24;86.95;100854.34;5051236;28;20413;-77
2020/12/25 06:56:13;;;;;;;4.00;2.70;;;;;;;1.23;86.80;100857.28;5051202;28;20501;-76
2020/12/25 06:58:53;;;;;;;2.60;2.10;;;;;;;1.23;85.82;100862.66;5051036;28;20471;-77
2020/12/25 07:01:38;;;;;;;2.77;2.13;;;;;;;1.21;85.71;100864.78;5051489;28;20461;-77
2020/12/25 07:04:05;;;;;;;4.33;2.20;;;;;;;1.16;85.91;100865.50;5051026;28;20928;-77
2020/12/25 07:06:31;;;;;;;2.63;2.43;;;;;;;1.17;86.22;100870.66;5050810;28;20409;-77
2020/12/25 07:09:09;;;;;;;17.13;2.43;;;;;;;1.11;86.51;100879.66;5050819;28;20817;-77
2020/12/25 07:11:34;;;;;;;3.83;2.37;;;;;;;1.10;86.98;100879.91;5050956;28;20415;-77
2020/12/25 07:13:59;;;;;;;5.40;2.70;;;;;;;1.07;86.78;100883.06;5051032;28;20422;-77
2020/12/25 07:16:26;;;;;;;2.17;1.93;;;;;;;1.05;86.99;100891.38;5050935;28;20631;-77
2020/12/25 07:18:51;;;;;;;3.13;2.93;;;;;;;1.00;87.07;100888.56;5050783;28;20199;-77
2020/12/25 07:21:16;;;;;;;3.50;3.20;;;;;;;1.04;87.36;100887.06;5050600;28;20461;-76
2020/12/25 07:23:43;;;;;;;3.00;2.80;;;;;;;1.07;87.10;100896.53;5051126;28;20207;-78
2020/12/25 07:26:09;;;;;;;2.90;2.70;;;;;;;1.03;86.50;100898.06;5050735;28;20229;-76
2020/12/25 07:28:35;;;;;;;5.10;2.90;;;;;;;1.04;87.04;100892.44;5050662;28;20822;-77
2020/12/25 07:31:01;;;;;;;4.30;3.40;;;;;;;1.04;86.34;100902.38;5050523;28;20179;-75
2020/12/25 07:33:26;;;;;;;4.10;3.20;;;;;;;1.06;86.51;100914.53;5050415;28;20487;-76
2020/12/25 07:35:51;;;;;;;3.10;2.20;;;;;;;1.03;86.39;100916.88;5050541;28;20189;-77
2020/12/25 07:38:17;;;;;;;3.30;3.00;;;;;;;1.03;86.57;100912.31;5050321;28;20225;-77
2020/12/25 07:40:44;;;;;;;4.80;3.30;;;;;;;1.05;86.54;100918.28;5050347;28;20187;-76
2020/12/25 07:43:10;;;;;;;5.20;3.50;;;;;;;1.05;86.91;100915.59;5050499;28;20254;-75
2020/12/25 07:45:36;;;;;;;3.17;2.57;;;;;;;1.09;87.18;100924.00;5050614;28;20437;-76
2020/12/25 07:48:03;;;;;;;3.10;2.80;;;;;;;1.05;86.99;100925.53;5051008;28;20453;-76
2020/12/25 07:50:42;;;;;;;4.03;3.63;;;;;;;1.00;87.49;100934.31;5056645;28;20414;-75
2020/12/25 07:53:09;;;;;;;2.53;2.33;;;;;;;0.97;87.93;100928.56;5057175;28;20402;-77
2020/12/25 07:55:35;;;;;;;6.07;5.57;;;;;;;0.97;88.20;100933.97;5056922;28;20504;-75
2020/12/25 07:58:02;;;;;;;8.67;5.73;;;;;;;0.98;88.73;100938.28;5056840;28;20512;-76
2020/12/25 08:00:27;;;;;;;4.03;3.73;;;;;;;0.93;89.01;100941.69;5056822;28;20171;-77
2020/12/25 08:02:54;;;;;;;4.77;4.27;;;;;;;0.83;89.06;100950.34;5056910;28;20506;-76
2020/12/25 08:05:19;;;;;;;6.47;5.90;;;;;;;0.82;89.31;100950.56;5056740;28;20254;-76
2020/12/25 08:07:45;;;;;;;5.63;5.13;;;;;;;0.80;89.95;100945.44;5056792;28;20505;-78
2020/12/25 08:10:13;;;;;;;16.20;4.97;;;;;;;0.80;89.67;100945.44;5056773;28;20353;-78
2020/12/25 08:12:49;;;;;;;6.77;6.20;;;;;;;0.85;89.83;100953.59;5056713;28;20812;-78
2020/12/25 08:15:15;;;;;;;7.40;6.63;;;;;;;0.89;89.89;100960.19;5056936;28;20421;-78
2020/12/25 08:17:40;;;;;;;7.63;6.87;;;;;;;0.88;89.92;100955.03;5056719;28;20464;-78
2020/12/25 08:20:06;;;;;;;8.50;7.57;;;;;;;0.89;90.03;100962.06;5056797;28;20179;-78
2020/12/25 08:22:32;;;;;;;13.83;6.83;;;;;;;0.93;90.13;100960.53;5056717;28;20202;-78
2020/12/25 08:24:58;;;;;;;7.77;5.87;;;;;;;0.94;90.03;100972.09;5056978;28;20171;-77
2020/12/25 08:27:31;;;;;;;8.23;5.37;;;;;;;0.94;89.82;100972.09;5056708;28;20254;-78
2020/12/25 08:30:01;;;;;;;5.07;4.67;;;;;;;0.91;89.69;100980.66;5056830;28;20747;-78
2020/12/25 08:32:29;;;;;;;7.97;5.80;;;;;;;0.89;89.91;100983.56;5056484;28;20751;-78
2020/12/25 08:35:14;;;;;;;9.83;6.50;;;;;;;0.87;89.87;100983.00;5056756;28;20424;-78
2020/12/25 08:37:57;;;;;;;7.63;6.47;;;;;;;0.87;89.98;100988.38;5056722;28;20467;-77
2020/12/25 08:40:23;;;;;;;8.73;5.73;;;;;;;0.88;90.02;100984.63;5056649;28;20413;-79
2020/12/25 08:42:50;;;;;;;8.97;7.83;;;;;;;0.92;90.37;100979.59;5056355;28;20940;-79
2020/12/25 08:45:21;;;;;;;11.40;7.43;;;;;;;0.95;90.04;100985.31;5056621;28;20289;-79
2020/12/25 08:48:06;;;;;;;7.17;6.47;;;;;;;0.98;90.14;100986.72;5056435;28;20433;-77
2020/12/25 08:50:32;;;;;;;7.13;5.97;;;;;;;0.97;89.87;100987.75;5056637;28;20507;-78
2020/12/25 08:53:18;;;;;;;8.10;6.73;;;;;;;0.96;89.66;100994.19;5056321;28;20457;-78
2020/12/25 08:55:49;;;;;;;7.60;6.83;;;;;;;0.99;89.58;101001.78;5056840;28;20212;-78
2020/12/25 08:58:19;;;;;;;5.27;4.20;;;;;;;1.03;89.91;101005.69;5054646;28;20996;-78
2020/12/25 09:01:02;;;;;;;8.83;6.60;;;;;;;0.99;89.67;101020.63;5054115;28;20425;-78
2020/12/25 09:03:41;;;;;;;8.83;5.20;;;;;;;1.00;89.26;101009.63;5053291;28;20455;-76
2020/12/25 09:06:08;;;;;;;11.17;7.10;;;;;;;1.05;89.40;101011.63;5033523;28;20445;-79
2020/12/25 09:08:34;;;;;;;7.50;6.07;;;;;;;1.05;88.99;101025.91;5033389;28;20940;-78
2020/12/25 09:10:59;;;;;;;11.53;4.67;;;;;;;1.09;88.98;101029.75;5033375;28;20423;-77
2020/12/25 09:13:25;;;;;;;5.93;5.37;;;;;;;1.12;89.02;101021.22;5033801;28;20223;-77
2020/12/25 09:15:50;;;;;;;10.97;5.53;;;;;;;1.08;88.76;101014.66;5033080;28;20203;-77
2020/12/25 09:18:15;;;;;;;8.50;5.70;;;;;;;1.07;88.78;101015.72;5033155;28;20182;-78
2020/12/25 09:20:41;;;;;;;11.17;7.30;;;;;;;1.07;88.46;101014.91;5031651;28;20524;-77
2020/12/25 09:23:06;;;;;;;10.87;5.63;;;;;;;1.05;87.74;101020.53;5051553;28;20224;-85
2020/12/25 09:25:32;;;;;;;10.73;6.77;;;;;;;1.06;87.36;101019.47;5052783;28;20182;-78
2020/12/25 09:27:57;;;;;;;8.23;6.17;;;;;;;1.06;86.45;101015.97;5052741;28;20704;-79
2020/12/25 09:30:22;;;;;;;5.17;3.33;;;;;;;1.08;86.56;101011.97;5052704;28;20221;-78
2020/12/25 09:32:47;;;;;;;3.53;3.23;;;;;;;1.09;86.32;101020.88;5052577;28;20266;-77
2020/12/25 09:35:13;;;;;;;11.37;7.30;;;;;;;1.06;86.55;101014.09;5052732;28;20175;-77
2020/12/25 09:37:38;;;;;;;8.30;7.53;;;;;;;1.12;86.77;101021.22;5052625;28;20261;-77
2020/12/25 09:40:04;;;;;;;11.63;8.67;;;;;;;1.22;87.05;101019.81;5052408;28;20187;-77
2020/12/25 09:42:29;;;;;;;11.27;7.33;;;;;;;1.27;86.83;101020.72;5051351;28;20241;-77
2020/12/25 09:44:54;;;;;;;6.07;5.37;;;;;;;1.23;86.05;101018.75;5051163;28;20183;-78
2020/12/25 09:47:20;;;;;;;13.00;8.27;;;;;;;1.21;86.49;101020.88;5052076;28;20198;-77
2020/12/25 09:49:45;;;;;;;6.53;5.47;;;;;;;1.21;86.16;101015.47;5052281;28;20233;-77
2020/12/25 09:52:11;;;;;;;8.40;6.37;;;;;;;1.24;86.76;101018.50;5052397;28;20179;-76
2020/12/25 09:54:36;;;;;;;11.63;5.67;;;;;;;1.25;86.19;101019.34;5052448;28;20171;-76
2020/12/25 09:57:02;;;;;;;12.43;7.23;;;;;;;1.24;86.43;101021.22;5052178;28;20179;-76
2020/12/25 09:59:28;;;;;;;12.83;7.40;;;;;;;1.23;85.78;101024.94;5052130;28;20269;-77
2020/12/25 10:01:53;;;;;;;11.43;6.60;;;;;;;1.28;85.65;101026.94;5052057;28;20960;-77
2020/12/25 10:04:19;;;;;;;13.67;5.00;;;;;;;1.33;85.59;101029.75;5052163;28;20176;-77
2020/12/25 10:06:44;;;;;;;6.57;5.93;;;;;;;1.38;85.53;101025.28;5052205;28;20198;-77
2020/12/25 10:09:10;;;;;;;11.20;5.80;;;;;;;1.47;84.85;101033.84;5052019;28;20190;-77
2020/12/25 10:11:35;;;;;;;5.03;4.13;;;;;;;1.60;84.80;101041.66;5050114;28;20180;-77
2020/12/25 10:14:00;;;;;;;8.83;5.50;;;;;;;1.70;83.44;101044.53;5051957;28;20646;-78
2020/12/25 10:16:25;;;;;;;6.50;5.80;;;;;;;1.78;83.13;101048.75;5052013;28;20523;-78
2020/12/25 10:18:51;;;;;;;4.20;3.13;;;;;;;1.87;82.30;101041.91;5051986;28;20179;-79
2020/12/25 10:21:18;;;;;;;5.37;4.73;;;;;;;1.86;81.88;101051.06;5051893;28;20266;-78
2020/12/25 10:23:43;;;;;;;9.67;5.40;;;;;;;1.85;82.32;101051.31;5050549;28;20184;-77
2020/12/25 10:26:12;;;;;;;7.10;5.17;;;;;;;1.81;81.39;101061.75;5051672;28;20851;-77
2020/12/25 10:28:38;;;;;;;9.37;5.17;;;;;;;1.74;81.27;101056.50;5051701;28;20678;-77
2020/12/25 10:31:04;;;;;;;5.83;4.27;;;;;;;1.72;81.96;101055.88;5051318;28;20471;-76
2020/12/25 10:33:29;;;;;;;10.53;5.40;;;;;;;1.73;81.72;101048.63;5051035;28;20258;-77
2020/12/25 10:35:54;;;;;;;5.70;4.87;;;;;;;1.76;81.71;101049.00;5051396;28;20658;-78
2020/12/25 10:38:20;;;;;;;4.53;3.50;;;;;;;1.86;81.09;101050.25;5051375;28;20811;-77
2020/12/25 10:40:45;;;;;;;9.70;5.70;;;;;;;1.90;81.28;101048.72;5051284;28;20266;-77
2020/12/25 10:43:10;;;;;;;6.77;5.87;;;;;;;2.00;81.72;101040.81;5050120;28;20198;-77
2020/12/25 10:45:36;;;;;;;13.93;5.70;;;;;;;2.09;80.66;101044.78;5049819;28;20179;-77
2020/12/25 10:48:01;;;;;;;7.17;3.73;;;;;;;2.10;79.74;101043.72;5051164;28;20182;-77
2020/12/25 10:50:26;;;;;;;4.97;3.37;;;;;;;2.10;79.38;101049.13;5051307;28;20195;-78
2020/12/25 10:52:54;;;;;;;8.20;3.80;;;;;;;2.11;79.93;101047.22;5051190;28;20233;-77
2020/12/25 10:55:20;;;;;;;5.23;3.60;;;;;;;2.15;79.69;101049.19;5049788;28;20183;-75
2020/12/25 10:57:45;;;;;;;6.73;4.00;;;;;;;2.23;80.22;101046.13;5050909;28;20957;-76
2020/12/25 11:00:11;;;;;;;4.43;2.90;;;;;;;2.24;79.08;101053.16;5050841;28;20613;-76
2020/12/25 11:02:36;;;;;;;8.40;2.90;;;;;;;2.15;79.21;101048.38;5050839;28;20199;-77
2020/12/25 11:05:01;;;;;;;3.80;2.80;;;;;;;2.15;79.19;101043.00;5051291;28;20312;-77
2020/12/25 11:07:27;;;;;;;6.07;5.13;;;;;;;2.20;79.04;101056.59;5049335;28;20167;-77
2020/12/25 11:09:52;;;;;;;4.43;3.83;;;;;;;2.23;79.13;101056.91;5048155;28;20523;-78
2020/12/25 11:12:17;;;;;;;3.40;2.43;;;;;;;2.35;79.08;101049.59;5049596;28;20217;-79
2020/12/25 11:14:42;;;;;;;7.60;4.03;;;;;;;2.36;79.68;101051.22;5049687;28;20179;-77
2020/12/25 11:17:08;;;;;;;9.67;3.03;;;;;;;2.42;78.88;101046.72;5049585;28;20179;-78
2020/12/25 11:19:33;;;;;;;7.30;3.70;;;;;;;2.46;78.85;101044.38;5049615;28;20169;-77
2020/12/25 11:21:58;;;;;;;19.77;10.13;;;;;;;2.53;79.04;101047.75;5049879;28;20226;-78
2020/12/25 11:24:24;;;;;;;4.70;3.60;;;;;;;2.51;77.88;101042.59;5049510;28;20552;-79
2020/12/25 11:26:49;;;;;;;5.73;2.57;;;;;;;2.61;77.05;101041.97;5050280;28;20225;-78
2020/12/25 11:29:14;;;;;;;6.57;2.23;;;;;;;2.62;77.33;101041.72;5050286;28;20174;-76
2020/12/25 11:31:40;;;;;;;6.73;2.83;;;;;;;2.67;77.98;101040.97;5050312;28;20179;-78